createdAt,value
2022-12-27T00:01:18.975Z,99258.09
2022-12-27T00:04:41.031Z,99254.06
2022-12-27T00:08:14.877Z,99257.56
2022-12-27T00:11:56.280Z,99252.72
2022-12-27T00:15:23.519Z,99268.56
2022-12-27T00:18:57.916Z,99277.25
2022-12-27T00:22:23.120Z,99284.25
2022-12-27T00:25:45.004Z,99269.88
2022-12-27T00:29:10.534Z,99279.72
2022-12-27T00:32:33.448Z,99275.38
2022-12-27T00:36:21.817Z,99273.97
2022-12-27T00:40:24.059Z,99275.75
2022-12-27T00:43:56.489Z,99268.75
2022-12-27T00:47:26.514Z,99273.38
2022-12-27T00:50:49.159Z,99265.56
2022-12-27T00:54:26.591Z,99274.22
2022-12-27T00:57:48.603Z,99281.16
2022-12-27T01:01:24.401Z,99286.47
2022-12-27T01:05:22.299Z,99289.19
2022-12-27T01:08:56.697Z,99283.72
2022-12-27T01:12:35.927Z,99286.81
2022-12-27T01:16:24.523Z,99271.69
2022-12-27T01:19:46.434Z,99284.78
2022-12-27T01:23:27.615Z,99295.16
2022-12-27T01:26:51.527Z,99299.31
2022-12-27T01:30:13.536Z,99302.75
2022-12-27T01:33:35.476Z,99319.53
2022-12-27T01:37:23.135Z,99327.34
2022-12-27T01:40:45.017Z,99316.47
2022-12-27T01:44:39.151Z,99326.66
2022-12-27T01:48:27.232Z,99328.19
2022-12-27T01:52:02.165Z,99338.69
2022-12-27T01:55:27.088Z,99343.47
2022-12-27T01:58:56.402Z,99342.78
2022-12-27T02:02:32.555Z,99354.41
2022-12-27T02:05:56.492Z,99353.06
2022-12-27T02:09:52.252Z,99351.69
2022-12-27T02:13:19.577Z,99360.03
2022-12-27T02:16:42.556Z,99357.06
2022-12-27T02:20:40.654Z,99354.78
2022-12-27T02:25:00.963Z,99362.78
2022-12-27T02:28:45.139Z,99355.63
2022-12-27T02:32:36.287Z,99352.91
2022-12-27T02:36:11.836Z,99354.78
2022-12-27T02:39:39.328Z,99356.56
2022-12-27T02:43:24.643Z,99350.69
2022-12-27T02:47:07.646Z,99356.88
2022-12-27T02:51:42.613Z,99354.00
2022-12-27T02:55:24.003Z,99355.47
2022-12-27T02:59:34.355Z,99345.72
2022-12-27T03:03:31.493Z,99340.91
2022-12-27T03:07:27.116Z,99345.31
2022-12-27T03:11:18.974Z,99342.88
2022-12-27T03:15:07.812Z,99346.38
2022-12-27T03:19:11.343Z,99357.63
2022-12-27T03:23:05.407Z,99354.69
2022-12-27T03:26:35.531Z,99359.50
2022-12-27T03:30:29.133Z,99352.28
2022-12-27T03:34:27.893Z,99347.72
2022-12-27T03:38:04.169Z,99359.47
2022-12-27T03:41:57.578Z,99358.94
2022-12-27T03:46:14.511Z,99369.25
2022-12-27T03:49:50.221Z,99380.59
2022-12-27T03:53:47.014Z,99380.38
2022-12-27T03:57:22.150Z,99379.28
2022-12-27T04:00:43.991Z,99395.31
2022-12-27T04:04:12.096Z,99384.44
2022-12-27T04:07:37.155Z,99382.47
2022-12-27T04:11:28.444Z,99385.44
2022-12-27T04:15:16.230Z,99388.75
2022-12-27T04:18:58.705Z,99386.97
2022-12-27T04:22:38.975Z,99393.94
2022-12-27T04:26:32.496Z,99392.00
2022-12-27T04:30:20.750Z,99385.66
2022-12-27T04:34:19.410Z,99394.66
2022-12-27T04:37:49.486Z,99396.03
2022-12-27T04:41:38.938Z,99401.25
2022-12-27T04:45:20.487Z,99401.84
2022-12-27T04:49:09.759Z,99406.44
2022-12-27T04:52:53.276Z,99413.94
2022-12-27T04:56:29.360Z,99407.88
2022-12-27T05:00:28.548Z,99414.47
2022-12-27T05:03:52.954Z,99405.06
2022-12-27T05:07:36.231Z,99413.56
2022-12-27T05:11:17.975Z,99411.31
2022-12-27T05:14:45.198Z,99409.06
2022-12-27T05:18:08.072Z,99397.00
2022-12-27T05:21:39.576Z,99390.91
2022-12-27T05:25:20.775Z,99408.09
2022-12-27T05:28:42.683Z,99408.84
2022-12-27T05:32:13.645Z,99427.41
2022-12-27T05:35:50.050Z,99425.22
2022-12-27T05:39:23.900Z,99420.34
2022-12-27T05:42:53.525Z,99434.91
2022-12-27T05:46:20.754Z,99425.97
2022-12-27T05:49:52.138Z,99411.53
2022-12-27T05:53:17.196Z,99420.78
2022-12-27T05:57:09.897Z,99421.22
2022-12-27T06:00:36.716Z,99411.94
2022-12-27T06:04:00.753Z,99418.50
2022-12-27T06:07:25.694Z,99411.44
2022-12-27T06:10:49.592Z,99403.38
2022-12-27T06:14:15.479Z,99407.72
2022-12-27T06:17:39.403Z,99395.97
2022-12-27T06:21:06.661Z,99408.59
2022-12-27T06:24:36.589Z,99411.75
2022-12-27T06:27:58.644Z,99404.31
2022-12-27T06:31:23.548Z,99407.88
2022-12-27T06:34:47.368Z,99410.53
2022-12-27T06:38:11.294Z,99409.69
2022-12-27T06:41:40.197Z,99416.56
2022-12-27T06:45:12.074Z,99401.03
2022-12-27T06:48:34.135Z,99416.94
2022-12-27T06:51:59.777Z,99421.50
2022-12-27T06:55:21.879Z,99408.72
2022-12-27T06:58:44.943Z,99421.31
2022-12-27T07:02:07.106Z,99417.72
2022-12-27T07:05:29.064Z,99420.75
2022-12-27T07:08:51.827Z,99422.66
2022-12-27T07:12:19.496Z,99422.78
2022-12-27T07:15:59.979Z,99432.44
2022-12-27T07:19:22.784Z,99436.75
2022-12-27T07:22:46.738Z,99451.72
2022-12-27T07:26:29.988Z,99461.16
2022-12-27T07:29:53.241Z,99461.66
2022-12-27T07:33:15.102Z,99463.59
2022-12-27T07:36:40.708Z,99465.00
2022-12-27T07:40:16.020Z,99475.47
2022-12-27T07:43:43.559Z,99463.28
2022-12-27T07:47:09.551Z,99477.84
2022-12-27T07:50:32.655Z,99472.84
2022-12-27T07:54:01.341Z,99466.78
2022-12-27T07:57:30.488Z,99471.63
2022-12-27T08:01:00.369Z,99483.25
2022-12-27T08:04:22.288Z,99474.47
2022-12-27T08:07:45.244Z,99490.69
2022-12-27T08:11:08.469Z,99483.34
2022-12-27T08:14:32.298Z,99488.38
2022-12-27T08:18:03.502Z,99496.75
2022-12-27T08:21:36.541Z,99486.50
2022-12-27T08:24:59.398Z,99488.72
2022-12-27T08:28:22.247Z,99492.44
2022-12-27T08:31:51.327Z,99492.63
2022-12-27T08:35:50.808Z,99487.81
2022-12-27T08:39:00.301Z,99493.84
2022-12-27T08:42:28.959Z,99508.22
2022-12-27T08:46:15.515Z,99516.47
2022-12-27T08:49:38.586Z,99512.69
2022-12-27T08:53:05.893Z,99504.19
2022-12-27T08:56:38.236Z,99507.69
2022-12-27T09:00:00.467Z,99493.66
2022-12-27T09:03:23.447Z,99500.94
2022-12-27T09:06:46.351Z,99506.03
2022-12-27T09:10:09.134Z,99506.91
2022-12-27T09:13:32.279Z,99509.09
2022-12-27T09:16:55.121Z,99507.38
2022-12-27T09:20:16.982Z,99520.03
2022-12-27T09:23:39.674Z,99523.19
2022-12-27T09:27:01.562Z,99525.91
2022-12-27T09:30:24.467Z,99515.03
2022-12-27T09:33:46.894Z,99524.56
2022-12-27T09:37:12.897Z,99514.56
2022-12-27T09:40:54.792Z,99536.13
2022-12-27T09:44:33.228Z,99533.34
2022-12-27T09:48:35.326Z,99528.44
2022-12-27T09:52:15.915Z,99528.88
2022-12-27T09:55:48.362Z,99517.75
2022-12-27T09:59:50.106Z,99511.50
2022-12-27T10:03:13.151Z,99521.16
2022-12-27T10:06:48.739Z,99520.75
2022-12-27T10:10:53.847Z,99513.59
2022-12-27T10:14:46.102Z,99514.34
2022-12-27T10:19:03.001Z,99508.84
2022-12-27T10:22:42.969Z,99505.00
2022-12-27T10:26:13.696Z,99508.28
2022-12-27T10:29:37.024Z,99504.69
2022-12-27T10:33:00.262Z,99508.06
2022-12-27T10:36:29.637Z,99514.38
2022-12-27T10:39:51.488Z,99507.47
2022-12-27T10:43:33.353Z,99509.38
2022-12-27T10:46:57.204Z,99511.81
2022-12-27T10:50:24.896Z,99504.50
2022-12-27T10:53:47.639Z,99512.00
2022-12-27T10:57:40.667Z,99518.78
2022-12-27T11:01:23.191Z,99518.88
2022-12-27T11:05:02.423Z,99502.97
2022-12-27T11:08:24.856Z,99505.16
2022-12-27T11:12:17.811Z,99503.50
2022-12-27T11:15:58.674Z,99507.06
2022-12-27T11:19:27.756Z,99504.88
2022-12-27T11:22:57.742Z,99505.72
2022-12-27T11:26:31.381Z,99495.75
2022-12-27T11:30:07.466Z,99496.34
2022-12-27T11:33:39.256Z,99487.84
2022-12-27T11:37:14.278Z,99485.47
2022-12-27T11:40:36.543Z,99489.13
2022-12-27T11:44:26.813Z,99496.75
2022-12-27T11:47:59.315Z,99488.94
2022-12-27T11:51:48.896Z,99503.25
2022-12-27T11:55:42.671Z,99491.69
2022-12-27T11:59:45.359Z,99490.28
2022-12-27T12:03:49.527Z,99490.19
2022-12-27T12:07:39.303Z,99495.50
2022-12-27T12:12:00.773Z,99492.41
2022-12-27T12:15:38.050Z,99495.19
2022-12-27T12:19:56.060Z,99493.16
2022-12-27T12:23:53.626Z,99488.81
2022-12-27T12:27:27.606Z,99481.03
2022-12-27T12:31:25.286Z,99470.59
2022-12-27T12:35:07.225Z,99458.41
2022-12-27T12:38:47.055Z,99454.69
2022-12-27T12:42:54.784Z,99464.31
2022-12-27T12:46:49.954Z,99460.28
2022-12-27T12:51:15.366Z,99457.63
2022-12-27T12:55:03.196Z,99448.09
2022-12-27T12:58:51.746Z,99442.31
2022-12-27T13:02:57.968Z,99428.38
2022-12-27T13:07:06.826Z,99432.69
2022-12-27T13:11:08.659Z,99420.34
2022-12-27T13:15:23.396Z,99418.66
2022-12-27T13:19:29.947Z,99410.38
2022-12-27T13:23:13.834Z,99404.00
2022-12-27T13:26:56.130Z,99401.25
2022-12-27T13:30:59.992Z,99395.09
2022-12-27T13:34:48.324Z,99394.38
2022-12-27T13:38:27.517Z,99392.47
2022-12-27T13:42:18.936Z,99387.50
2022-12-27T13:46:07.246Z,99383.50
2022-12-27T13:49:50.343Z,99379.13
2022-12-27T13:53:59.330Z,99367.63
2022-12-27T13:58:46.186Z,99354.34
2022-12-27T14:03:23.663Z,99344.09
2022-12-27T14:07:44.388Z,99352.72
2022-12-27T14:11:43.573Z,99339.91
2022-12-27T14:15:32.157Z,99334.22
2022-12-27T14:19:32.119Z,99331.09
2022-12-27T14:23:08.875Z,99344.53
2022-12-27T14:27:39.757Z,99344.72
2022-12-27T14:31:54.274Z,99357.53
2022-12-27T14:36:03.662Z,99364.56
2022-12-27T14:39:50.573Z,99357.47
2022-12-27T14:43:57.456Z,99354.88
2022-12-27T14:48:23.804Z,99358.13
2022-12-27T14:52:12.641Z,99352.13
2022-12-27T14:55:49.882Z,99337.44
2022-12-27T14:59:25.677Z,99349.25
2022-12-27T15:03:34.727Z,99345.38
2022-12-27T15:07:43.461Z,99349.84
2022-12-27T15:11:45.777Z,99344.22
2022-12-27T15:16:13.273Z,99351.31
2022-12-27T15:19:49.401Z,99353.66
2022-12-27T15:23:40.890Z,99356.88
2022-12-27T15:27:32.800Z,99346.50
2022-12-27T15:31:37.413Z,99355.50
2022-12-27T15:35:29.903Z,99360.00
2022-12-27T15:39:35.318Z,99352.06
2022-12-27T15:43:54.623Z,99357.03
2022-12-27T15:48:09.906Z,99350.22
2022-12-27T15:52:00.207Z,99351.06
2022-12-27T15:56:15.620Z,99353.72
2022-12-27T15:59:53.155Z,99354.13
2022-12-27T16:03:35.494Z,99351.69
2022-12-27T16:07:03.877Z,99344.09
2022-12-27T16:10:49.922Z,99348.00
2022-12-27T16:14:40.437Z,99340.50
2022-12-27T16:18:03.839Z,99342.78
2022-12-27T16:21:36.439Z,99331.72
2022-12-27T16:25:37.138Z,99318.25
2022-12-27T16:29:14.466Z,99310.22
2022-12-27T16:32:49.983Z,99310.13
2022-12-27T16:36:11.797Z,99306.72
2022-12-27T16:39:38.339Z,99296.41
2022-12-27T16:43:10.064Z,99306.63
2022-12-27T16:47:07.316Z,99311.72
2022-12-27T16:51:16.528Z,99319.84
2022-12-27T16:55:11.821Z,99317.84
2022-12-27T16:58:38.623Z,99315.00
2022-12-27T17:02:01.117Z,99313.69
2022-12-27T17:05:36.903Z,99314.03
2022-12-27T17:09:11.005Z,99324.72
2022-12-27T17:12:35.181Z,99307.63
2022-12-27T17:16:19.818Z,99312.53
2022-12-27T17:20:14.269Z,99302.53
2022-12-27T17:23:43.342Z,99288.94
2022-12-27T17:27:56.095Z,99292.88
2022-12-27T17:31:47.083Z,99291.47
2022-12-27T17:36:25.959Z,99280.16
2022-12-27T17:40:28.059Z,99288.28
2022-12-27T17:44:39.854Z,99289.47
2022-12-27T17:48:35.616Z,99290.81
2022-12-27T17:52:18.702Z,99282.66
2022-12-27T17:55:59.509Z,99263.97
2022-12-27T17:59:29.043Z,99275.22
2022-12-27T18:02:58.194Z,99267.16
2022-12-27T18:06:21.189Z,99268.72
2022-12-27T18:09:55.184Z,99265.28
2022-12-27T18:13:23.063Z,99242.91
2022-12-27T18:16:50.546Z,99243.84
2022-12-27T18:20:28.903Z,99249.44
2022-12-27T18:23:55.254Z,99243.31
2022-12-27T18:27:23.853Z,99228.94
2022-12-27T18:31:28.649Z,99235.50
2022-12-27T18:35:02.346Z,99238.31
2022-12-27T18:38:41.361Z,99234.09
2022-12-27T18:42:16.482Z,99232.72
2022-12-27T18:45:38.548Z,99224.41
2022-12-27T18:49:02.974Z,99215.22
2022-12-27T18:52:38.317Z,99215.53
2022-12-27T18:56:03.807Z,99223.63
2022-12-27T18:59:30.420Z,99215.44
2022-12-27T19:03:12.500Z,99206.84
2022-12-27T19:06:34.502Z,99201.47
2022-12-27T19:10:04.702Z,99182.97
2022-12-27T19:13:50.193Z,99189.69
2022-12-27T19:17:32.179Z,99193.88
2022-12-27T19:21:01.134Z,99178.81
2022-12-27T19:24:32.766Z,99178.41
2022-12-27T19:28:02.455Z,99174.41
2022-12-27T19:31:24.560Z,99175.41
2022-12-27T19:34:52.258Z,99176.28
2022-12-27T19:38:23.115Z,99174.97
2022-12-27T19:41:45.824Z,99175.88
2022-12-27T19:45:14.377Z,99173.19
2022-12-27T19:48:43.661Z,99153.94
2022-12-27T19:52:24.929Z,99158.25
2022-12-27T19:55:55.140Z,99157.31
2022-12-27T19:59:24.000Z,99145.53
2022-12-27T20:02:53.147Z,99141.63
2022-12-27T20:06:26.824Z,99146.06
2022-12-27T20:09:57.009Z,99127.53
2022-12-27T20:13:19.263Z,99143.03
2022-12-27T20:16:44.588Z,99135.63
2022-12-27T20:20:07.586Z,99119.81
2022-12-27T20:23:37.305Z,99120.56
2022-12-27T20:27:00.220Z,99116.25
2022-12-27T20:30:30.607Z,99117.81
2022-12-27T20:33:56.767Z,99108.66
2022-12-27T20:37:25.972Z,99112.00
2022-12-27T20:40:51.229Z,99107.41
2022-12-27T20:44:15.263Z,99106.34
2022-12-27T20:47:44.513Z,99111.63
2022-12-27T20:51:13.279Z,99102.75
2022-12-27T20:54:36.992Z,99102.44
2022-12-27T20:58:00.244Z,99085.44
2022-12-27T21:01:25.546Z,99089.84
2022-12-27T21:04:52.695Z,99074.56
2022-12-27T21:08:14.578Z,99068.94
2022-12-27T21:11:40.749Z,99072.25
2022-12-27T21:15:08.546Z,99075.25
2022-12-27T21:18:34.223Z,99063.44
2022-12-27T21:21:58.159Z,99058.03
2022-12-27T21:25:22.569Z,99063.31
2022-12-27T21:28:55.097Z,99063.78
2022-12-27T21:32:17.948Z,99044.50
2022-12-27T21:35:42.956Z,99055.03
2022-12-27T21:39:06.734Z,99052.06
2022-12-27T21:42:29.576Z,99050.16
2022-12-27T21:45:54.693Z,99041.84
2022-12-27T21:49:16.711Z,99055.91
2022-12-27T21:52:38.587Z,99055.66
2022-12-27T21:56:00.797Z,99045.84
2022-12-27T21:59:24.726Z,99060.28
2022-12-27T22:02:46.763Z,99058.53
2022-12-27T22:06:19.236Z,99053.03
2022-12-27T22:09:43.180Z,99031.66
2022-12-27T22:13:07.147Z,99047.41
2022-12-27T22:16:38.626Z,99040.09
2022-12-27T22:20:04.852Z,99042.03
2022-12-27T22:23:42.414Z,99039.88
2022-12-27T22:27:05.383Z,99032.50
2022-12-27T22:30:33.641Z,99022.31
2022-12-27T22:34:04.150Z,99039.13
2022-12-27T22:37:27.119Z,99031.25
2022-12-27T22:40:50.224Z,99030.28
2022-12-27T22:44:15.124Z,99031.28
2022-12-27T22:47:39.062Z,99020.94
2022-12-27T22:51:16.727Z,99014.47
2022-12-27T22:55:05.958Z,99006.31
2022-12-27T22:58:31.700Z,99000.38
2022-12-27T23:02:06.131Z,98986.66
2022-12-27T23:05:36.316Z,98981.63
2022-12-27T23:08:59.877Z,98991.69
2022-12-27T23:12:38.894Z,98984.63
2022-12-27T23:16:03.451Z,98977.13
2022-12-27T23:19:39.157Z,98978.38
2022-12-27T23:23:01.057Z,98963.56
2022-12-27T23:26:26.874Z,98963.75
2022-12-27T23:29:49.694Z,98947.91
2022-12-27T23:33:21.347Z,98942.41
2022-12-27T23:36:51.306Z,98929.47
2022-12-27T23:40:21.349Z,98907.91
2022-12-27T23:43:55.268Z,98904.75
2022-12-27T23:47:17.910Z,98882.44
2022-12-27T23:50:56.180Z,98877.47
2022-12-27T23:54:18.037Z,98863.72
2022-12-27T23:57:43.006Z,98882.94
